createdAt,value
2022-07-26T00:01:10.372Z,5.45
2022-07-26T00:07:36.794Z,5.10
2022-07-26T00:10:42.591Z,5.20
2022-07-26T00:13:47.732Z,5.40
2022-07-26T00:16:51.114Z,5.55
2022-07-26T00:19:54.463Z,4.97
2022-07-26T00:22:57.806Z,5.82
2022-07-26T00:26:01.104Z,5.32
2022-07-26T00:29:06.537Z,5.50
2022-07-26T00:32:10.217Z,5.43
2022-07-26T00:35:13.574Z,6.00
2022-07-26T00:38:16.902Z,5.95
2022-07-26T00:41:20.343Z,5.78
2022-07-26T00:44:25.085Z,6.20
2022-07-26T00:47:28.388Z,6.35
2022-07-26T00:50:31.884Z,5.90
2022-07-26T00:53:35.180Z,6.28
2022-07-26T00:56:40.084Z,6.10
2022-07-26T01:03:29.269Z,6.10
2022-07-26T01:06:42.957Z,6.50
2022-07-26T01:09:46.352Z,6.38
2022-07-26T01:12:49.794Z,6.63
2022-07-26T01:15:54.554Z,6.70
2022-07-26T01:18:57.981Z,6.38
2022-07-26T01:22:02.796Z,6.70
2022-07-26T01:25:07.279Z,6.63
2022-07-26T01:28:10.582Z,6.25
2022-07-26T01:31:13.899Z,6.57
2022-07-26T01:34:17.623Z,6.57
2022-07-26T01:37:24.465Z,6.70
2022-07-26T01:40:27.815Z,6.28
2022-07-26T01:43:31.144Z,7.28
2022-07-26T01:46:34.651Z,6.65
2022-07-26T01:49:37.943Z,6.75
2022-07-26T01:52:42.610Z,7.03
2022-07-26T01:55:45.844Z,7.10
2022-07-26T01:58:49.584Z,7.28
2022-07-26T02:01:52.982Z,7.32
2022-07-26T02:05:02.066Z,7.60
2022-07-26T02:08:06.936Z,7.18
2022-07-26T02:11:10.493Z,7.85
2022-07-26T02:14:13.749Z,7.70
2022-07-26T02:17:29.532Z,7.57
2022-07-26T02:20:33.370Z,7.97
2022-07-26T02:23:41.307Z,8.20
2022-07-26T02:26:45.245Z,7.85
2022-07-26T02:29:48.483Z,8.07
2022-07-26T02:32:51.774Z,8.15
2022-07-26T02:35:55.005Z,7.93
2022-07-26T02:38:59.632Z,7.90
2022-07-26T02:42:05.154Z,8.15
2022-07-26T02:45:09.868Z,8.90
2022-07-26T02:48:13.121Z,9.07
2022-07-26T02:51:16.466Z,10.65
2022-07-26T02:54:21.059Z,9.38
2022-07-26T02:57:24.364Z,9.30
2022-07-26T03:00:28.113Z,8.75
2022-07-26T03:03:31.565Z,8.75
2022-07-26T03:06:39.872Z,8.60
2022-07-26T03:09:44.551Z,8.95
2022-07-26T03:12:47.818Z,9.13
2022-07-26T03:15:51.195Z,9.30
2022-07-26T03:18:54.450Z,10.05
2022-07-26T03:21:57.721Z,9.55
2022-07-26T03:25:02.343Z,8.90
2022-07-26T03:28:06.016Z,9.40
2022-07-26T03:31:09.372Z,10.00
2022-07-26T03:34:12.683Z,9.63
2022-07-26T03:37:15.998Z,9.73
2022-07-26T03:40:21.127Z,9.25
2022-07-26T03:43:24.381Z,9.63
2022-07-26T03:46:27.785Z,9.48
2022-07-26T03:49:31.173Z,9.65
2022-07-26T03:52:34.732Z,9.35
2022-07-26T03:55:56.797Z,8.85
2022-07-26T03:59:02.007Z,9.30
2022-07-26T04:02:05.407Z,8.82
2022-07-26T04:05:09.509Z,8.30
2022-07-26T04:08:12.763Z,7.70
2022-07-26T04:11:17.448Z,7.75
2022-07-26T04:14:21.275Z,7.38
2022-07-26T04:17:24.620Z,8.15
2022-07-26T04:20:27.956Z,7.35
2022-07-26T04:23:31.350Z,7.43
2022-07-26T04:26:36.203Z,7.40
2022-07-26T04:29:39.469Z,7.38
2022-07-26T04:32:42.748Z,6.97
2022-07-26T04:35:46.506Z,7.82
2022-07-26T04:38:49.755Z,7.53
2022-07-26T04:41:54.391Z,7.65
2022-07-26T04:44:57.625Z,7.03
2022-07-26T04:48:00.858Z,15.93
2022-07-26T04:51:04.286Z,10.05
2022-07-26T04:54:07.947Z,10.05
2022-07-26T04:57:12.883Z,7.93
2022-07-26T05:00:22.890Z,6.90
2022-07-26T05:03:27.117Z,6.57
2022-07-26T05:06:32.197Z,6.18
2022-07-26T05:09:35.497Z,6.68
2022-07-26T05:12:40.257Z,6.60
2022-07-26T05:15:43.671Z,6.03
2022-07-26T05:18:49.098Z,5.75
2022-07-26T05:21:52.765Z,6.43
2022-07-26T05:24:56.094Z,6.35
2022-07-26T05:28:01.034Z,5.78
2022-07-26T05:31:04.474Z,6.30
2022-07-26T05:34:08.564Z,5.88
2022-07-26T05:37:12.574Z,39.17
2022-07-26T05:40:16.029Z,10.77
2022-07-26T05:43:20.789Z,6.68
2022-07-26T05:46:24.153Z,6.93
2022-07-26T05:49:27.502Z,5.93
2022-07-26T05:52:43.308Z,6.15
2022-07-26T05:55:46.681Z,5.70
2022-07-26T05:58:51.356Z,5.53
2022-07-26T06:01:56.523Z,5.50
2022-07-26T06:05:00.038Z,5.28
2022-07-26T06:08:03.316Z,5.63
2022-07-26T06:11:07.244Z,5.60
2022-07-26T06:14:12.209Z,5.68
2022-07-26T06:17:15.798Z,4.95
2022-07-26T06:20:19.072Z,5.10
2022-07-26T06:23:34.262Z,5.05
2022-07-26T06:26:38.654Z,4.78
2022-07-26T06:29:43.329Z,4.95
2022-07-26T06:32:46.703Z,5.00
2022-07-26T06:35:50.043Z,5.10
2022-07-26T06:38:54.964Z,41.08
2022-07-26T06:41:58.338Z,18.85
2022-07-26T06:45:05.970Z,6.18
2022-07-26T06:48:11.257Z,4.43
2022-07-26T06:51:14.609Z,4.50
2022-07-26T06:54:17.887Z,4.85
2022-07-26T06:57:21.544Z,4.18
2022-07-26T07:00:26.236Z,6.25
2022-07-26T07:03:29.594Z,5.30
2022-07-26T07:06:32.972Z,4.90
2022-07-26T07:09:37.569Z,4.93
2022-07-26T07:12:41.813Z,4.88
2022-07-26T07:15:46.625Z,4.32
2022-07-26T07:18:51.359Z,4.43
2022-07-26T07:21:54.751Z,4.53
2022-07-26T07:24:58.490Z,4.20
2022-07-26T07:28:02.039Z,4.30
2022-07-26T07:31:07.346Z,4.30
2022-07-26T07:34:12.517Z,4.28
2022-07-26T07:37:22.721Z,32.63
2022-07-26T07:40:26.843Z,5.68
2022-07-26T07:43:30.286Z,4.70
2022-07-26T07:46:35.782Z,4.40
2022-07-26T07:49:39.181Z,3.83
2022-07-26T07:52:42.555Z,3.70
2022-07-26T07:55:46.830Z,4.00
2022-07-26T07:58:50.420Z,5.05
2022-07-26T08:01:57.187Z,8.90
2022-07-26T08:05:11.360Z,4.95
2022-07-26T08:08:18.000Z,4.18
2022-07-26T08:11:21.383Z,4.93
2022-07-26T08:14:24.877Z,6.50
2022-07-26T08:17:31.938Z,6.88
2022-07-26T08:20:38.058Z,4.70
2022-07-26T08:23:44.081Z,4.43
2022-07-26T08:26:47.458Z,4.18
2022-07-26T08:29:50.740Z,12.82
2022-07-26T08:32:56.894Z,5.00
2022-07-26T08:36:03.166Z,4.28
2022-07-26T08:39:06.915Z,4.03
2022-07-26T08:42:15.587Z,4.05
2022-07-26T08:45:23.753Z,4.00
2022-07-26T08:48:28.847Z,4.00
2022-07-26T08:51:32.767Z,4.20
2022-07-26T08:54:36.324Z,3.80
2022-07-26T08:57:39.742Z,3.70
2022-07-26T09:00:45.519Z,3.72
2022-07-26T09:03:50.942Z,3.45
2022-07-26T09:07:03.513Z,3.63
2022-07-26T09:10:08.969Z,3.50
2022-07-26T09:13:12.397Z,3.67
2022-07-26T09:16:16.259Z,3.60
2022-07-26T09:19:23.620Z,9.48
2022-07-26T09:22:27.068Z,4.78
2022-07-26T09:25:32.943Z,6.32
2022-07-26T09:28:37.281Z,5.35
2022-07-26T09:31:48.517Z,4.05
2022-07-26T09:34:58.893Z,3.65
2022-07-26T09:38:03.476Z,3.40
2022-07-26T09:41:19.518Z,3.72
2022-07-26T09:44:25.506Z,3.75
2022-07-26T09:47:39.766Z,3.83
2022-07-26T09:50:50.241Z,44.97
2022-07-26T09:53:55.346Z,3.90
2022-07-26T09:57:00.741Z,3.70
2022-07-26T10:00:05.897Z,3.60
2022-07-26T10:03:11.280Z,3.40
2022-07-26T10:06:16.101Z,3.50
2022-07-26T10:09:20.375Z,3.47
2022-07-26T10:12:30.603Z,3.15
2022-07-26T10:15:43.265Z,2.95
2022-07-26T10:18:47.404Z,3.13
2022-07-26T10:22:13.939Z,3.55
2022-07-26T10:25:50.461Z,3.40
2022-07-26T10:28:53.886Z,3.70
2022-07-26T10:32:20.526Z,3.60
2022-07-26T10:35:40.737Z,3.58
2022-07-26T10:39:02.709Z,3.38
2022-07-26T10:42:08.482Z,3.30
2022-07-26T10:45:19.314Z,3.80
2022-07-26T10:48:24.887Z,3.40
2022-07-26T10:51:30.841Z,3.53
2022-07-26T10:55:17.114Z,3.25
2022-07-26T10:58:21.052Z,3.17
2022-07-26T11:01:33.124Z,3.47
2022-07-26T11:04:36.609Z,3.70
2022-07-26T11:07:56.759Z,3.22
2022-07-26T11:11:07.400Z,3.60
2022-07-26T11:14:13.114Z,3.55
2022-07-26T11:17:25.955Z,3.75
2022-07-26T11:20:30.119Z,3.53
2022-07-26T11:23:35.494Z,3.50
2022-07-26T11:26:44.642Z,4.10
2022-07-26T11:29:50.225Z,4.57
2022-07-26T11:32:59.780Z,3.88
2022-07-26T11:36:05.079Z,3.60
2022-07-26T11:39:10.701Z,3.47
2022-07-26T11:42:19.504Z,3.65
2022-07-26T11:45:25.630Z,4.18
2022-07-26T11:48:29.702Z,3.80
2022-07-26T11:51:33.470Z,3.72
2022-07-26T11:54:47.064Z,3.67
2022-07-26T11:57:52.071Z,3.72
2022-07-26T12:00:55.514Z,3.35
2022-07-26T12:03:58.872Z,3.53
2022-07-26T12:07:04.431Z,3.50
2022-07-26T12:10:08.558Z,4.13
2022-07-26T12:13:15.012Z,4.22
2022-07-26T12:16:40.211Z,4.00
2022-07-26T12:19:44.129Z,4.47
2022-07-26T12:22:56.245Z,4.05
2022-07-26T12:25:59.572Z,3.95
2022-07-26T12:29:22.529Z,4.10
2022-07-26T12:32:33.243Z,4.32
2022-07-26T12:35:36.518Z,4.13
2022-07-26T12:38:40.754Z,3.78
2022-07-26T12:41:44.067Z,3.92
2022-07-26T12:44:48.855Z,4.00
2022-07-26T12:47:54.759Z,4.13
2022-07-26T12:50:58.994Z,3.80
2022-07-26T12:54:03.477Z,4.00
2022-07-26T12:57:06.865Z,3.95
2022-07-26T13:00:13.280Z,4.18
2022-07-26T13:03:16.637Z,4.40
2022-07-26T13:06:19.962Z,4.20
2022-07-26T13:09:23.340Z,4.53
2022-07-26T13:12:26.905Z,4.65
2022-07-26T13:15:37.424Z,4.65
2022-07-26T13:18:41.254Z,4.90
2022-07-26T13:21:47.998Z,4.95
2022-07-26T13:24:55.668Z,4.78
2022-07-26T13:27:59.656Z,5.43
2022-07-26T13:31:04.505Z,5.03
2022-07-26T13:34:08.326Z,4.78
2022-07-26T13:37:12.014Z,5.18
2022-07-26T13:40:16.739Z,5.22
2022-07-26T13:43:20.638Z,5.10
2022-07-26T13:46:33.469Z,5.38
2022-07-26T13:49:37.393Z,5.70
2022-07-26T13:52:40.886Z,5.88
2022-07-26T13:55:44.417Z,6.35
2022-07-26T13:58:47.762Z,7.00
2022-07-26T14:01:52.946Z,7.88
2022-07-26T14:04:56.269Z,7.70
2022-07-26T14:08:02.665Z,8.38
2022-07-26T14:11:06.552Z,8.30
2022-07-26T14:14:10.344Z,7.50
2022-07-26T14:17:15.361Z,7.97
2022-07-26T14:20:18.933Z,7.30
2022-07-26T14:23:23.483Z,7.38
2022-07-26T14:26:30.313Z,7.53
2022-07-26T14:29:34.261Z,7.28
2022-07-26T14:32:39.309Z,6.63
2022-07-26T14:35:43.988Z,7.05
2022-07-26T14:38:47.818Z,7.30
2022-07-26T14:41:51.513Z,7.43
2022-07-26T14:44:55.392Z,7.70
2022-07-26T14:48:00.588Z,7.65
2022-07-26T14:51:09.550Z,7.40
2022-07-26T14:54:14.819Z,8.10
2022-07-26T14:57:19.833Z,8.35
2022-07-26T15:00:25.366Z,8.57
2022-07-26T15:03:33.678Z,8.60
2022-07-26T15:06:37.357Z,8.30
2022-07-26T15:09:41.011Z,8.45
2022-07-26T15:12:45.401Z,7.78
2022-07-26T15:15:48.835Z,8.82
2022-07-26T15:18:53.646Z,8.57
2022-07-26T15:21:57.072Z,10.88
2022-07-26T15:25:00.637Z,13.30
2022-07-26T15:28:04.394Z,14.07
2022-07-26T15:31:07.882Z,16.02
2022-07-26T15:34:13.064Z,17.67
2022-07-26T15:37:16.701Z,19.15
2022-07-26T15:40:20.915Z,24.60
2022-07-26T15:43:48.319Z,26.90
2022-07-26T15:46:49.851Z,29.63
2022-07-26T15:49:54.508Z,36.15
2022-07-26T15:57:45.134Z,42.20
2022-07-26T16:00:49.652Z,46.72
2022-07-26T16:03:52.994Z,57.30
2022-07-26T16:06:57.694Z,57.92
2022-07-26T16:14:55.172Z,47.80
2022-07-26T16:18:02.922Z,47.88
2022-07-26T16:21:09.323Z,36.13
2022-07-26T16:24:14.015Z,37.15
2022-07-26T16:27:17.648Z,35.83
2022-07-26T16:30:21.991Z,28.42
2022-07-26T16:33:25.339Z,28.50
2022-07-26T16:36:28.931Z,26.85
2022-07-26T16:39:33.737Z,25.45
2022-07-26T16:42:39.064Z,23.13
2022-07-26T16:45:43.076Z,25.52
2022-07-26T16:48:46.812Z,22.70
2022-07-26T16:51:50.609Z,23.52
2022-07-26T16:54:55.477Z,22.83
2022-07-26T16:57:58.790Z,21.70
2022-07-26T17:01:02.275Z,21.83
2022-07-26T17:04:06.018Z,21.30
2022-07-26T17:07:26.050Z,21.98
2022-07-26T17:13:34.313Z,21.30
2022-07-26T17:16:37.908Z,22.10
2022-07-26T17:19:41.744Z,24.05
2022-07-26T17:22:45.180Z,30.98
2022-07-26T17:25:49.956Z,35.10
2022-07-26T17:28:53.250Z,33.97
2022-07-26T17:31:56.606Z,36.38
2022-07-26T17:34:59.988Z,36.40
2022-07-26T17:38:04.126Z,38.03
2022-07-26T17:41:10.742Z,40.10
2022-07-26T17:44:22.206Z,37.80
2022-07-26T17:47:29.265Z,39.55
2022-07-26T17:50:36.850Z,41.15
2022-07-26T17:53:42.275Z,42.83
2022-07-26T17:56:47.127Z,43.05
2022-07-26T17:59:50.520Z,44.40
2022-07-26T18:02:54.176Z,49.95
2022-07-26T18:05:58.591Z,39.90
2022-07-26T18:09:06.797Z,39.30
2022-07-26T18:12:12.319Z,36.08
2022-07-26T18:15:16.404Z,32.10
2022-07-26T18:18:20.943Z,28.15
2022-07-26T18:21:24.589Z,6.90
2022-07-26T18:24:28.141Z,1.33
2022-07-26T18:27:33.276Z,0.88
2022-07-26T18:30:37.702Z,0.45
2022-07-26T18:33:41.230Z,0.73
2022-07-26T18:36:44.768Z,0.82
2022-07-26T18:39:49.938Z,0.60
2022-07-26T18:42:56.376Z,1.05
2022-07-26T18:46:05.567Z,0.40
2022-07-26T18:49:14.061Z,0.77
2022-07-26T18:52:31.604Z,1.17
2022-07-26T18:55:36.263Z,1.63
2022-07-26T18:58:41.551Z,1.90
2022-07-26T19:01:45.152Z,0.90
2022-07-26T19:04:49.082Z,0.65
2022-07-26T19:07:53.378Z,0.85
2022-07-26T19:10:57.748Z,0.57
2022-07-26T19:14:02.887Z,0.32
2022-07-26T19:17:09.990Z,0.30
2022-07-26T19:20:14.011Z,0.93
2022-07-26T19:23:17.525Z,0.95
2022-07-26T19:26:23.439Z,0.88
2022-07-26T19:29:28.675Z,1.10
2022-07-26T19:32:33.705Z,0.63
2022-07-26T19:35:37.362Z,0.50
2022-07-26T19:38:41.228Z,0.10
2022-07-26T19:41:46.298Z,0.88
2022-07-26T19:44:51.319Z,0.17
2022-07-26T19:47:55.152Z,1.00
2022-07-26T19:51:00.637Z,0.40
2022-07-26T19:54:04.565Z,0.43
2022-07-26T19:57:08.354Z,0.50
2022-07-26T20:00:15.107Z,0.30
2022-07-26T20:03:19.410Z,1.20
2022-07-26T20:06:23.822Z,0.40
2022-07-26T20:09:30.380Z,0.40
2022-07-26T20:12:34.993Z,1.08
2022-07-26T20:15:40.261Z,0.77
2022-07-26T20:18:43.939Z,1.00
2022-07-26T20:21:48.279Z,0.40
2022-07-26T20:24:56.221Z,1.30
2022-07-26T20:27:59.900Z,3.08
2022-07-26T20:31:07.645Z,1.40
2022-07-26T20:34:12.676Z,1.02
2022-07-26T20:37:16.294Z,0.60
2022-07-26T20:40:19.822Z,1.02
2022-07-26T20:43:23.538Z,4.70
2022-07-26T20:46:31.470Z,0.57
2022-07-26T20:49:35.183Z,0.75
2022-07-26T20:52:40.438Z,0.52
2022-07-26T20:55:44.772Z,0.38
2022-07-26T20:58:50.460Z,1.23
2022-07-26T21:01:55.718Z,1.67
2022-07-26T21:05:05.016Z,0.40
2022-07-26T21:08:09.331Z,0.47
2022-07-26T21:11:12.950Z,1.85
2022-07-26T21:14:16.704Z,0.85
2022-07-26T21:17:21.545Z,0.20
2022-07-26T21:20:37.458Z,1.17
2022-07-26T21:23:41.452Z,1.80
2022-07-26T21:26:45.588Z,0.68
2022-07-26T21:29:49.067Z,0.98
2022-07-26T21:32:53.964Z,0.40
2022-07-26T21:35:57.386Z,1.48
2022-07-26T21:39:01.173Z,0.57
2022-07-26T21:42:05.395Z,0.40
2022-07-26T21:45:09.483Z,0.70
2022-07-26T21:48:14.253Z,0.90
2022-07-26T21:51:17.685Z,1.10
2022-07-26T21:54:21.006Z,0.98
2022-07-26T21:57:24.424Z,1.50
2022-07-26T22:00:27.823Z,1.30
2022-07-26T22:03:33.352Z,1.30
2022-07-26T22:06:36.861Z,0.82
2022-07-26T22:09:40.306Z,1.00
2022-07-26T22:12:43.719Z,1.88
2022-07-26T22:15:47.851Z,1.05
2022-07-26T22:18:52.812Z,0.28
2022-07-26T22:21:56.173Z,0.98
2022-07-26T22:24:59.465Z,0.47
2022-07-26T22:28:04.211Z,0.40
2022-07-26T22:31:07.530Z,0.73
2022-07-26T22:34:12.268Z,0.73
2022-07-26T22:37:15.826Z,1.60
2022-07-26T22:40:20.114Z,1.30
2022-07-26T22:43:23.560Z,0.70
2022-07-26T22:46:27.504Z,0.93
2022-07-26T22:49:34.240Z,0.85
2022-07-26T22:52:38.220Z,0.82
2022-07-26T22:55:42.078Z,0.40
2022-07-26T22:58:45.380Z,1.05
2022-07-26T23:01:48.714Z,0.85
2022-07-26T23:04:53.433Z,0.60
2022-07-26T23:08:00.412Z,0.52
2022-07-26T23:11:07.237Z,0.55
2022-07-26T23:14:11.395Z,0.73
2022-07-26T23:17:15.068Z,0.60
2022-07-26T23:20:19.819Z,0.30
2022-07-26T23:23:23.179Z,0.25
2022-07-26T23:26:28.741Z,0.55
2022-07-26T23:29:32.168Z,0.40
2022-07-26T23:32:35.520Z,0.90
2022-07-26T23:35:40.172Z,0.73
2022-07-26T23:38:43.498Z,1.05
2022-07-26T23:41:46.778Z,0.28
2022-07-26T23:44:50.110Z,0.52
2022-07-26T23:47:53.646Z,1.02
2022-07-26T23:50:58.423Z,1.50
2022-07-26T23:54:01.713Z,0.68
2022-07-26T23:57:05.229Z,1.85
